createdAt,value
2023-11-07T00:02:56.480Z,8.53
2023-11-07T00:05:58.054Z,8.49
2023-11-07T00:08:59.592Z,8.40
2023-11-07T00:12:02.367Z,8.47
2023-11-07T00:15:04.333Z,8.50
2023-11-07T00:18:06.613Z,8.52
2023-11-07T00:21:08.520Z,8.58
2023-11-07T00:24:10.175Z,8.57
2023-11-07T00:27:11.596Z,8.63
2023-11-07T00:30:13.054Z,8.64
2023-11-07T00:33:14.808Z,8.64
2023-11-07T00:36:17.307Z,8.69
2023-11-07T00:39:18.755Z,8.66
2023-11-07T00:42:20.215Z,8.71
2023-11-07T00:45:21.730Z,8.74
2023-11-07T00:48:23.453Z,8.74
2023-11-07T00:51:25.677Z,8.75
2023-11-07T00:54:27.132Z,8.68
2023-11-07T00:57:28.687Z,8.60
2023-11-07T01:00:30.206Z,8.62
2023-11-07T01:03:32.283Z,8.70
2023-11-07T01:06:33.867Z,8.79
2023-11-07T01:09:35.539Z,8.80
2023-11-07T01:12:37.358Z,8.83
2023-11-07T01:15:39.276Z,9.07
2023-11-07T01:18:41.015Z,9.27
2023-11-07T01:21:42.546Z,9.49
2023-11-07T01:24:43.963Z,9.58
2023-11-07T01:27:45.386Z,9.71
2023-11-07T01:30:47.543Z,9.73
2023-11-07T01:33:49.250Z,9.71
2023-11-07T01:36:51.408Z,9.73
2023-11-07T01:39:52.979Z,9.70
2023-11-07T01:42:56.543Z,9.70
2023-11-07T01:46:01.486Z,9.67
2023-11-07T01:49:03.928Z,9.64
2023-11-07T01:52:05.764Z,9.64
2023-11-07T01:55:11.523Z,9.65
2023-11-07T01:58:13.986Z,9.61
2023-11-07T02:01:15.689Z,9.61
2023-11-07T02:04:18.519Z,9.51
2023-11-07T02:07:20.165Z,9.49
2023-11-07T02:10:22.747Z,9.44
2023-11-07T02:13:24.248Z,9.38
2023-11-07T02:16:25.702Z,9.27
2023-11-07T02:19:27.133Z,9.14
2023-11-07T02:22:28.605Z,9.09
2023-11-07T02:25:30.082Z,9.03
2023-11-07T02:28:32.874Z,9.02
2023-11-07T02:31:34.324Z,9.03
2023-11-07T02:34:35.823Z,9.05
2023-11-07T02:37:37.560Z,9.07
2023-11-07T02:40:39.417Z,9.15
2023-11-07T02:43:41.422Z,9.21
2023-11-07T02:46:42.941Z,9.27
2023-11-07T02:49:44.400Z,9.27
2023-11-07T02:52:46.406Z,9.26
2023-11-07T02:55:48.139Z,9.24
2023-11-07T02:58:49.557Z,9.26
2023-11-07T03:01:51.792Z,9.27
2023-11-07T03:04:55.779Z,9.22
2023-11-07T03:07:58.579Z,9.21
2023-11-07T03:11:00.026Z,9.17
2023-11-07T03:14:01.503Z,9.10
2023-11-07T03:17:02.981Z,9.12
2023-11-07T03:20:07.495Z,9.02
2023-11-07T03:23:09.019Z,9.01
2023-11-07T03:26:11.278Z,9.11
2023-11-07T03:29:12.978Z,9.17
2023-11-07T03:32:14.766Z,9.16
2023-11-07T03:35:18.055Z,9.11
2023-11-07T03:38:20.758Z,9.11
2023-11-07T03:41:23.509Z,9.12
2023-11-07T03:44:25.222Z,9.17
2023-11-07T03:47:26.786Z,9.20
2023-11-07T03:50:29.520Z,9.26
2023-11-07T03:53:32.586Z,9.29
2023-11-07T03:56:34.087Z,9.27
2023-11-07T03:59:35.802Z,9.30
2023-11-07T04:02:38.171Z,9.34
2023-11-07T04:05:39.800Z,9.36
2023-11-07T04:08:41.320Z,9.41
2023-11-07T04:11:43.318Z,9.40
2023-11-07T04:14:46.357Z,9.46
2023-11-07T04:17:51.946Z,9.49
2023-11-07T04:20:53.628Z,9.53
2023-11-07T04:23:55.120Z,9.58
2023-11-07T04:26:56.671Z,9.58
2023-11-07T04:29:58.165Z,9.60
2023-11-07T04:33:00.005Z,9.64
2023-11-07T04:36:02.497Z,9.65
2023-11-07T04:39:04.111Z,9.68
2023-11-07T04:42:06.618Z,9.66
2023-11-07T04:45:10.085Z,9.67
2023-11-07T04:48:12.486Z,9.72
2023-11-07T04:51:14.086Z,9.70
2023-11-07T04:54:15.600Z,9.74
2023-11-07T04:57:17.109Z,9.70
2023-11-07T05:00:20.802Z,9.71
2023-11-07T05:03:29.628Z,9.73
2023-11-07T05:06:35.701Z,9.76
2023-11-07T05:09:37.608Z,9.78
2023-11-07T05:12:41.821Z,9.78
2023-11-07T05:15:44.849Z,9.80
2023-11-07T05:18:47.121Z,9.78
2023-11-07T05:21:48.672Z,9.70
2023-11-07T05:24:50.122Z,9.71
2023-11-07T05:27:51.641Z,9.82
2023-11-07T05:30:53.145Z,9.69
2023-11-07T05:33:59.949Z,9.73
2023-11-07T05:37:01.428Z,9.69
2023-11-07T05:40:05.998Z,9.69
2023-11-07T05:43:09.347Z,9.70
2023-11-07T05:46:10.826Z,9.70
2023-11-07T05:49:12.706Z,9.73
2023-11-07T05:52:14.289Z,9.73
2023-11-07T05:55:15.802Z,9.72
2023-11-07T05:58:17.947Z,9.73
2023-11-07T06:01:19.595Z,9.72
2023-11-07T06:04:35.602Z,9.78
2023-11-07T06:07:37.293Z,9.79
2023-11-07T06:10:38.788Z,9.74
2023-11-07T06:13:40.369Z,9.72
2023-11-07T06:16:42.020Z,9.71
2023-11-07T06:19:43.443Z,9.74
2023-11-07T06:22:45.844Z,9.77
2023-11-07T06:25:48.314Z,9.72
2023-11-07T06:28:49.839Z,9.76
2023-11-07T06:31:51.325Z,9.80
2023-11-07T06:34:54.397Z,9.77
2023-11-07T06:37:55.815Z,9.74
2023-11-07T06:40:57.400Z,9.71
2023-11-07T06:43:58.881Z,9.72
2023-11-07T06:47:00.843Z,9.71
2023-11-07T06:50:02.419Z,9.75
2023-11-07T06:53:03.956Z,9.75
2023-11-07T06:56:05.852Z,9.71
2023-11-07T06:59:07.280Z,9.72
2023-11-07T07:02:08.716Z,9.72
2023-11-07T07:05:14.470Z,9.71
2023-11-07T07:08:16.411Z,9.74
2023-11-07T07:11:18.214Z,9.75
2023-11-07T07:14:19.650Z,9.72
2023-11-07T07:17:24.978Z,9.74
2023-11-07T07:20:30.113Z,9.76
2023-11-07T07:23:34.004Z,9.87
2023-11-07T07:26:35.547Z,9.84
2023-11-07T07:29:38.693Z,9.87
2023-11-07T07:32:42.284Z,9.94
2023-11-07T07:35:46.595Z,9.94
2023-11-07T07:38:48.314Z,9.97
2023-11-07T07:41:49.829Z,9.95
2023-11-07T07:44:51.954Z,10.01
2023-11-07T07:47:54.462Z,10.00
2023-11-07T07:50:59.771Z,9.99
2023-11-07T07:54:01.240Z,9.97
2023-11-07T07:57:02.724Z,9.96
2023-11-07T08:00:12.912Z,9.93
2023-11-07T08:03:16.353Z,10.00
2023-11-07T08:06:17.965Z,10.00
2023-11-07T08:09:20.287Z,10.06
2023-11-07T08:12:22.272Z,10.07
2023-11-07T08:15:26.327Z,10.09
2023-11-07T08:18:27.894Z,10.16
2023-11-07T08:21:29.371Z,10.19
2023-11-07T08:24:30.932Z,10.15
2023-11-07T08:27:33.303Z,10.20
2023-11-07T08:30:34.760Z,10.23
2023-11-07T08:36:43.805Z,10.37
2023-11-07T08:39:50.528Z,10.44
2023-11-07T08:42:52.671Z,10.48
2023-11-07T08:45:54.212Z,10.50
2023-11-07T08:48:56.092Z,10.57
2023-11-07T08:51:58.703Z,10.53
2023-11-07T08:55:04.190Z,10.59
2023-11-07T08:58:06.694Z,10.58
2023-11-07T09:01:11.487Z,10.63
2023-11-07T09:04:13.073Z,10.73
2023-11-07T09:07:17.688Z,10.72
2023-11-07T09:10:21.256Z,10.73
2023-11-07T09:13:24.453Z,10.79
2023-11-07T09:16:26.278Z,10.85
2023-11-07T09:19:27.839Z,10.90
2023-11-07T09:22:29.768Z,11.01
2023-11-07T09:25:31.438Z,11.00
2023-11-07T09:28:33.013Z,11.15
2023-11-07T09:31:34.558Z,11.07
2023-11-07T09:34:41.095Z,11.09
2023-11-07T09:37:43.184Z,11.02
2023-11-07T09:40:45.492Z,11.08
2023-11-07T09:43:47.896Z,11.12
2023-11-07T09:46:51.367Z,11.08
2023-11-07T09:49:55.838Z,11.09
2023-11-07T09:52:57.951Z,11.00
2023-11-07T09:56:01.212Z,10.99
2023-11-07T09:59:09.794Z,11.02
2023-11-07T10:02:11.372Z,11.01
2023-11-07T10:05:13.180Z,10.94
2023-11-07T10:08:14.891Z,10.98
2023-11-07T10:11:16.357Z,10.90
2023-11-07T10:14:21.299Z,10.89
2023-11-07T10:17:23.586Z,10.88
2023-11-07T10:20:25.576Z,10.96
2023-11-07T10:23:27.131Z,10.92
2023-11-07T10:26:28.891Z,10.91
2023-11-07T10:29:40.458Z,10.98
2023-11-07T10:32:46.441Z,10.99
2023-11-07T10:36:00.226Z,11.02
2023-11-07T10:39:02.265Z,11.05
2023-11-07T10:42:20.661Z,11.09
2023-11-07T10:45:23.305Z,11.08
2023-11-07T10:48:26.577Z,11.26
2023-11-07T10:51:30.676Z,11.26
2023-11-07T10:54:33.069Z,11.37
2023-11-07T10:57:37.683Z,11.40
2023-11-07T11:00:40.803Z,11.41
2023-11-07T11:03:46.119Z,11.47
2023-11-07T11:06:58.491Z,11.49
2023-11-07T11:10:03.105Z,11.38
2023-11-07T11:13:06.084Z,11.35
2023-11-07T11:16:09.054Z,11.24
2023-11-07T11:19:22.105Z,11.13
2023-11-07T11:22:32.399Z,10.93
2023-11-07T11:26:02.368Z,10.85
2023-11-07T11:29:26.340Z,10.88
2023-11-07T11:32:33.078Z,10.93
2023-11-07T11:35:39.216Z,11.06
2023-11-07T11:38:40.912Z,11.19
2023-11-07T11:41:58.715Z,11.36
2023-11-07T11:45:40.862Z,11.41
2023-11-07T11:48:52.066Z,11.58
2023-11-07T11:51:55.481Z,11.68
2023-11-07T11:54:57.059Z,11.77
2023-11-07T11:58:16.824Z,11.64
2023-11-07T12:01:22.254Z,11.69
2023-11-07T12:04:49.191Z,11.61
2023-11-07T12:07:50.871Z,11.66
2023-11-07T12:10:59.360Z,11.70
2023-11-07T12:14:02.634Z,11.82
2023-11-07T12:17:04.266Z,11.98
2023-11-07T12:20:09.489Z,12.05
2023-11-07T12:23:16.736Z,12.00
2023-11-07T12:26:18.567Z,11.89
2023-11-07T12:29:37.502Z,12.02
2023-11-07T12:32:39.026Z,12.17
2023-11-07T12:35:40.792Z,12.44
2023-11-07T12:38:43.414Z,12.68
2023-11-07T12:41:45.978Z,12.71
2023-11-07T12:44:50.830Z,12.64
2023-11-07T12:48:25.491Z,12.50
2023-11-07T12:51:27.018Z,12.34
2023-11-07T12:54:28.550Z,12.26
2023-11-07T12:57:37.787Z,12.11
2023-11-07T13:01:00.466Z,12.16
2023-11-07T13:04:01.963Z,12.28
2023-11-07T13:07:05.016Z,12.35
2023-11-07T13:10:14.645Z,12.33
2023-11-07T13:13:16.450Z,12.38
2023-11-07T13:16:18.564Z,12.45
2023-11-07T13:19:20.048Z,12.34
2023-11-07T13:22:21.602Z,12.35
2023-11-07T13:25:23.598Z,12.31
2023-11-07T13:28:26.697Z,12.23
2023-11-07T13:31:30.388Z,12.34
2023-11-07T13:34:32.086Z,12.30
2023-11-07T13:37:34.562Z,12.26
2023-11-07T13:40:36.323Z,12.19
2023-11-07T13:43:37.893Z,12.25
2023-11-07T13:46:40.099Z,12.30
2023-11-07T13:49:41.650Z,12.27
2023-11-07T13:52:43.075Z,12.19
2023-11-07T13:55:44.842Z,12.07
2023-11-07T13:58:47.080Z,11.94
2023-11-07T14:01:48.569Z,11.92
2023-11-07T14:04:50.368Z,11.85
2023-11-07T14:07:53.052Z,11.94
2023-11-07T14:10:55.311Z,12.07
2023-11-07T14:13:56.792Z,12.15
2023-11-07T14:16:58.346Z,12.03
2023-11-07T14:20:00.755Z,12.04
2023-11-07T14:23:02.480Z,11.91
2023-11-07T14:26:07.549Z,11.91
2023-11-07T14:29:26.684Z,11.86
2023-11-07T14:32:31.676Z,11.75
2023-11-07T14:35:34.776Z,11.74
2023-11-07T14:38:37.564Z,11.66
2023-11-07T14:41:41.705Z,11.52
2023-11-07T14:44:46.464Z,11.53
2023-11-07T14:47:48.704Z,11.48
2023-11-07T14:50:54.093Z,11.49
2023-11-07T14:53:55.598Z,11.49
2023-11-07T14:57:03.723Z,11.50
2023-11-07T15:00:10.280Z,11.47
2023-11-07T15:03:12.550Z,11.41
2023-11-07T15:06:15.020Z,11.43
2023-11-07T15:09:16.887Z,11.27
2023-11-07T15:12:18.398Z,11.38
2023-11-07T15:15:24.025Z,11.47
2023-11-07T15:18:26.167Z,11.46
2023-11-07T15:21:27.792Z,11.48
2023-11-07T15:24:29.330Z,11.41
2023-11-07T15:27:30.798Z,11.39
2023-11-07T15:30:33.037Z,11.31
2023-11-07T15:33:35.475Z,11.32
2023-11-07T15:36:36.964Z,11.28
2023-11-07T15:39:38.389Z,11.10
2023-11-07T15:42:40.937Z,11.08
2023-11-07T15:45:43.660Z,11.03
2023-11-07T15:48:45.257Z,11.00
2023-11-07T15:51:47.625Z,10.94
2023-11-07T15:54:49.261Z,10.84
2023-11-07T15:57:50.871Z,10.75
2023-11-07T16:00:54.556Z,10.66
2023-11-07T16:03:59.101Z,10.61
2023-11-07T16:07:00.660Z,10.64
2023-11-07T16:10:02.975Z,10.54
2023-11-07T16:13:04.812Z,10.42
2023-11-07T16:16:09.791Z,10.38
2023-11-07T16:19:11.829Z,10.32
2023-11-07T16:22:13.435Z,10.29
2023-11-07T16:25:16.578Z,10.25
2023-11-07T16:28:18.058Z,10.24
2023-11-07T16:31:19.543Z,10.25
2023-11-07T16:34:21.252Z,10.20
2023-11-07T16:37:23.094Z,10.21
2023-11-07T16:40:25.098Z,10.15
2023-11-07T16:43:26.611Z,10.15
2023-11-07T16:46:28.028Z,10.25
2023-11-07T16:49:29.507Z,10.26
2023-11-07T16:52:30.964Z,10.26
2023-11-07T16:55:32.559Z,10.29
2023-11-07T16:58:34.007Z,10.32
2023-11-07T17:01:35.769Z,10.30
2023-11-07T17:04:38.253Z,10.38
2023-11-07T17:07:39.908Z,10.29
2023-11-07T17:10:41.928Z,10.28
2023-11-07T17:13:43.379Z,10.17
2023-11-07T17:16:44.906Z,10.20
2023-11-07T17:19:49.917Z,10.18
2023-11-07T17:22:51.977Z,10.16
2023-11-07T17:25:53.417Z,10.15
2023-11-07T17:28:54.921Z,10.10
2023-11-07T17:31:58.727Z,10.17
2023-11-07T17:35:04.468Z,10.15
2023-11-07T17:38:05.969Z,10.13
2023-11-07T17:41:16.610Z,10.11
2023-11-07T17:44:21.900Z,10.14
2023-11-07T17:47:26.215Z,10.08
2023-11-07T17:50:29.953Z,10.10
2023-11-07T17:53:31.397Z,10.04
2023-11-07T17:56:34.085Z,10.14
2023-11-07T17:59:35.682Z,10.04
2023-11-07T18:02:38.500Z,9.96
2023-11-07T18:05:40.051Z,9.87
2023-11-07T18:08:43.026Z,9.92
2023-11-07T18:11:46.211Z,9.90
2023-11-07T18:14:47.745Z,9.93
2023-11-07T18:17:49.351Z,9.93
2023-11-07T18:20:50.819Z,9.82
2023-11-07T18:23:52.379Z,9.93
2023-11-07T18:26:57.618Z,9.83
2023-11-07T18:30:00.605Z,9.86
2023-11-07T18:33:02.283Z,9.91
2023-11-07T18:36:04.300Z,9.73
2023-11-07T18:39:05.864Z,9.72
2023-11-07T18:42:08.084Z,9.72
2023-11-07T18:45:11.795Z,9.65
2023-11-07T18:48:13.415Z,9.70
2023-11-07T18:51:15.055Z,9.70
2023-11-07T18:54:16.653Z,9.68
2023-11-07T18:57:18.161Z,9.56
2023-11-07T19:00:22.377Z,9.53
2023-11-07T19:03:23.940Z,9.55
2023-11-07T19:06:26.376Z,9.51
2023-11-07T19:09:29.479Z,9.45
2023-11-07T19:12:31.091Z,9.43
2023-11-07T19:15:32.632Z,9.43
2023-11-07T19:18:36.147Z,9.44
2023-11-07T19:21:40.232Z,9.45
2023-11-07T19:24:42.877Z,9.45
2023-11-07T19:27:45.599Z,9.39
2023-11-07T19:30:47.087Z,9.37
2023-11-07T19:33:51.532Z,9.35
2023-11-07T19:36:54.054Z,9.22
2023-11-07T19:39:58.033Z,9.22
2023-11-07T19:42:59.701Z,9.22
2023-11-07T19:46:01.119Z,9.30
2023-11-07T19:49:03.959Z,9.35
2023-11-07T19:52:05.957Z,9.33
2023-11-07T19:55:08.233Z,9.30
2023-11-07T19:58:10.118Z,9.29
2023-11-07T20:01:14.225Z,9.21
2023-11-07T20:04:15.878Z,9.14
2023-11-07T20:07:17.423Z,9.08
2023-11-07T20:10:18.908Z,9.17
2023-11-07T20:13:20.447Z,9.15
2023-11-07T20:16:21.893Z,9.12
2023-11-07T20:19:23.491Z,9.10
2023-11-07T20:22:26.072Z,9.04
2023-11-07T20:25:27.508Z,9.00
2023-11-07T20:28:28.971Z,8.97
2023-11-07T20:31:35.694Z,8.97
2023-11-07T20:34:38.040Z,8.99
2023-11-07T20:37:40.227Z,9.05
2023-11-07T20:40:41.780Z,9.07
2023-11-07T20:43:43.490Z,9.10
2023-11-07T20:46:45.061Z,9.13
2023-11-07T20:49:49.893Z,9.09
2023-11-07T20:52:52.245Z,9.12
2023-11-07T20:55:54.762Z,9.12
2023-11-07T20:58:57.536Z,9.06
2023-11-07T21:01:59.356Z,9.06
2023-11-07T21:05:01.442Z,8.99
2023-11-07T21:08:02.969Z,8.99
2023-11-07T21:11:04.860Z,9.01
2023-11-07T21:14:06.352Z,8.96
2023-11-07T21:17:07.876Z,8.90
2023-11-07T21:20:11.369Z,8.85
2023-11-07T21:23:13.000Z,8.85
2023-11-07T21:26:15.272Z,8.80
2023-11-07T21:29:16.748Z,8.77
2023-11-07T21:32:18.289Z,8.80
2023-11-07T21:35:19.820Z,8.79
2023-11-07T21:38:22.777Z,8.79
2023-11-07T21:41:24.224Z,8.78
2023-11-07T21:44:25.902Z,8.70
2023-11-07T21:47:27.431Z,8.73
2023-11-07T21:50:28.915Z,8.68
2023-11-07T21:53:30.712Z,8.66
2023-11-07T21:56:32.506Z,8.73
2023-11-07T21:59:34.212Z,8.68
2023-11-07T22:02:36.060Z,8.60
2023-11-07T22:05:37.594Z,8.61
2023-11-07T22:08:39.260Z,8.65
2023-11-07T22:11:40.694Z,8.65
2023-11-07T22:14:42.111Z,8.58
2023-11-07T22:17:44.327Z,8.61
2023-11-07T22:20:45.769Z,8.58
2023-11-07T22:23:47.198Z,8.55
2023-11-07T22:26:48.741Z,8.54
2023-11-07T22:29:50.619Z,8.54
2023-11-07T22:32:52.434Z,8.54
2023-11-07T22:35:54.448Z,8.51
2023-11-07T22:38:56.001Z,8.53
2023-11-07T22:41:57.417Z,8.48
2023-11-07T22:44:59.093Z,8.50
2023-11-07T22:48:01.269Z,8.51
2023-11-07T22:51:03.562Z,8.47
2023-11-07T22:54:05.284Z,8.35
2023-11-07T22:57:07.211Z,8.38
2023-11-07T23:00:11.956Z,8.33
2023-11-07T23:03:14.235Z,8.29
2023-11-07T23:06:15.976Z,8.30
2023-11-07T23:09:19.502Z,8.25
2023-11-07T23:12:20.985Z,8.24
2023-11-07T23:15:22.470Z,8.28
2023-11-07T23:18:24.565Z,8.32
2023-11-07T23:21:27.072Z,8.39
2023-11-07T23:24:28.676Z,8.40
2023-11-07T23:27:33.718Z,8.47
2023-11-07T23:30:35.253Z,8.45
2023-11-07T23:33:36.854Z,8.46
2023-11-07T23:36:38.572Z,8.51
2023-11-07T23:39:40.053Z,8.51
2023-11-07T23:42:44.559Z,8.58
2023-11-07T23:45:46.200Z,8.54
2023-11-07T23:48:47.689Z,8.58
2023-11-07T23:51:49.358Z,8.49
2023-11-07T23:54:50.780Z,8.50
2023-11-07T23:57:52.732Z,8.57
